createdAt,value
2022-08-31T00:00:57.787Z,6.15
2022-08-31T00:06:02.373Z,6.93
2022-08-31T00:11:08.234Z,5.30
2022-08-31T00:16:12.479Z,5.78
2022-08-31T00:21:14.366Z,5.05
2022-08-31T00:26:17.723Z,4.15
2022-08-31T00:31:19.565Z,3.47
2022-08-31T00:36:23.799Z,4.68
2022-08-31T00:41:29.522Z,5.35
2022-08-31T00:46:43.542Z,4.63
2022-08-31T00:51:55.087Z,3.83
2022-08-31T00:56:57.286Z,4.03
2022-08-31T01:02:00.954Z,4.25
2022-08-31T01:07:04.980Z,4.50
2022-08-31T01:12:08.472Z,6.38
2022-08-31T01:17:10.260Z,5.30
2022-08-31T01:22:30.607Z,4.45
2022-08-31T01:27:35.329Z,4.18
2022-08-31T01:32:39.045Z,4.28
2022-08-31T01:37:40.812Z,4.60
2022-08-31T01:53:18.131Z,4.70
2022-08-31T01:58:20.858Z,7.70
2022-08-31T02:03:23.043Z,6.72
2022-08-31T02:08:25.758Z,4.82
2022-08-31T02:13:28.624Z,4.20
2022-08-31T02:18:34.623Z,4.20
2022-08-31T02:23:36.825Z,4.18
2022-08-31T02:28:39.077Z,4.47
2022-08-31T02:33:41.662Z,4.65
2022-08-31T02:38:44.399Z,4.80
2022-08-31T02:43:46.613Z,5.10
2022-08-31T02:48:49.018Z,4.35
2022-08-31T02:53:51.339Z,4.88
2022-08-31T02:58:54.783Z,4.72
2022-08-31T03:03:57.533Z,4.95
2022-08-31T03:09:02.620Z,5.43
2022-08-31T03:14:04.397Z,4.35
2022-08-31T03:19:07.277Z,4.55
2022-08-31T03:24:09.321Z,5.18
2022-08-31T03:29:11.421Z,4.88
2022-08-31T03:34:15.933Z,4.68
2022-08-31T03:39:18.317Z,4.18
2022-08-31T03:44:21.677Z,4.35
2022-08-31T03:49:23.398Z,4.68
2022-08-31T03:54:25.198Z,4.60
2022-08-31T03:59:27.073Z,4.93
2022-08-31T04:04:28.778Z,6.75
2022-08-31T04:09:30.797Z,4.40
2022-08-31T04:14:33.624Z,5.22
2022-08-31T04:19:36.902Z,4.60
2022-08-31T04:24:38.745Z,6.53
2022-08-31T04:29:40.871Z,6.63
2022-08-31T04:34:42.991Z,6.43
2022-08-31T04:39:51.002Z,4.82
2022-08-31T04:44:54.278Z,4.75
2022-08-31T04:49:55.999Z,4.55
2022-08-31T04:54:58.316Z,4.95
2022-08-31T05:00:00.013Z,5.40
2022-08-31T05:05:02.307Z,5.90
2022-08-31T05:10:05.025Z,5.03
2022-08-31T05:15:07.462Z,5.53
2022-08-31T05:20:09.555Z,5.68
2022-08-31T05:25:11.665Z,4.78
2022-08-31T05:30:13.733Z,7.32
2022-08-31T05:35:16.206Z,7.40
2022-08-31T05:40:18.144Z,6.15
2022-08-31T05:45:19.857Z,5.50
2022-08-31T05:50:22.423Z,5.68
2022-08-31T05:55:24.134Z,6.10
2022-08-31T06:00:26.592Z,5.32
2022-08-31T06:05:29.292Z,5.15
2022-08-31T06:10:32.441Z,5.20
2022-08-31T06:15:34.554Z,4.70
2022-08-31T06:20:41.677Z,5.25
2022-08-31T06:25:43.850Z,4.78
2022-08-31T06:30:54.729Z,5.72
2022-08-31T06:35:57.677Z,8.48
2022-08-31T06:41:00.560Z,7.60
2022-08-31T06:46:02.413Z,6.32
2022-08-31T06:51:05.350Z,6.60
2022-08-31T06:56:20.369Z,6.82
2022-08-31T07:01:35.171Z,6.50
2022-08-31T07:06:42.554Z,7.40
2022-08-31T07:11:51.254Z,6.28
2022-08-31T07:16:55.410Z,6.75
2022-08-31T07:22:00.001Z,6.70
2022-08-31T07:27:08.616Z,7.07
2022-08-31T07:32:12.788Z,8.63
2022-08-31T07:37:33.050Z,8.50
2022-08-31T07:42:44.479Z,8.43
2022-08-31T07:47:47.081Z,7.35
2022-08-31T07:52:54.057Z,7.20
2022-08-31T07:57:56.929Z,6.20
2022-08-31T08:03:07.473Z,5.80
2022-08-31T08:08:13.971Z,5.35
2022-08-31T08:13:22.945Z,5.93
2022-08-31T08:18:25.280Z,5.45
2022-08-31T08:23:27.968Z,5.43
2022-08-31T08:28:40.496Z,5.68
2022-08-31T08:33:43.735Z,5.55
2022-08-31T08:38:48.707Z,5.32
2022-08-31T08:43:57.981Z,5.72
2022-08-31T08:49:11.854Z,6.03
2022-08-31T08:54:19.543Z,6.03
2022-08-31T08:59:21.644Z,5.93
2022-08-31T09:04:39.868Z,7.00
2022-08-31T09:10:01.250Z,5.90
2022-08-31T09:15:36.252Z,6.55
2022-08-31T09:20:41.270Z,6.13
2022-08-31T09:25:53.115Z,6.82
2022-08-31T09:30:56.141Z,6.88
2022-08-31T09:36:25.459Z,7.18
2022-08-31T09:41:32.596Z,5.97
2022-08-31T09:46:35.215Z,6.05
2022-08-31T09:51:38.720Z,6.53
2022-08-31T09:56:56.793Z,5.72
2022-08-31T10:02:01.258Z,5.50
2022-08-31T10:07:14.187Z,5.95
2022-08-31T10:12:27.565Z,5.82
2022-08-31T10:17:36.117Z,6.30
2022-08-31T10:22:38.325Z,6.18
2022-08-31T10:27:47.680Z,5.68
2022-08-31T10:32:56.969Z,6.35
2022-08-31T10:38:10.803Z,5.95
2022-08-31T10:43:31.914Z,5.65
2022-08-31T10:48:34.034Z,5.07
2022-08-31T10:53:47.131Z,5.70
2022-08-31T10:58:57.351Z,6.00
2022-08-31T11:04:04.756Z,5.23
2022-08-31T11:09:18.202Z,4.78
2022-08-31T11:14:31.693Z,4.47
2022-08-31T11:20:05.057Z,5.25
2022-08-31T11:25:28.240Z,5.25
2022-08-31T11:30:33.335Z,4.97
2022-08-31T11:36:06.107Z,5.25
2022-08-31T11:41:11.181Z,4.85
2022-08-31T11:46:28.697Z,4.78
2022-08-31T11:51:42.979Z,5.07
2022-08-31T11:56:47.446Z,3.65
2022-08-31T12:01:49.383Z,4.47
2022-08-31T12:06:51.298Z,3.80
2022-08-31T12:12:06.682Z,4.20
2022-08-31T12:17:22.895Z,3.90
2022-08-31T12:22:55.265Z,3.35
2022-08-31T12:28:17.251Z,3.88
2022-08-31T12:33:23.482Z,4.38
2022-08-31T12:38:30.630Z,3.40
2022-08-31T12:43:39.703Z,2.75
2022-08-31T12:48:53.574Z,3.47
2022-08-31T12:54:20.100Z,4.55
2022-08-31T12:59:59.846Z,2.67
2022-08-31T13:05:02.810Z,2.70
2022-08-31T13:10:22.301Z,3.78
2022-08-31T13:20:46.893Z,3.45
2022-08-31T13:26:15.163Z,3.63
2022-08-31T13:31:23.487Z,3.22
2022-08-31T13:36:33.261Z,4.03
2022-08-31T13:41:39.157Z,2.72
2022-08-31T13:47:00.351Z,3.38
2022-08-31T13:52:13.571Z,3.55
2022-08-31T13:57:25.880Z,3.60
2022-08-31T14:02:37.399Z,3.33
2022-08-31T14:07:40.902Z,3.45
2022-08-31T14:12:59.760Z,2.78
2022-08-31T14:18:29.676Z,2.35
2022-08-31T14:23:35.063Z,2.80
2022-08-31T14:28:41.046Z,2.47
2022-08-31T14:33:50.327Z,2.58
2022-08-31T14:38:57.363Z,2.40
2022-08-31T14:44:13.708Z,2.70
2022-08-31T14:49:16.134Z,2.35
2022-08-31T14:54:18.075Z,2.67
2022-08-31T14:59:21.649Z,2.80
2022-08-31T15:04:25.147Z,2.70
2022-08-31T15:09:27.456Z,2.95
2022-08-31T15:14:30.945Z,2.20
2022-08-31T15:19:35.691Z,2.30
2022-08-31T15:24:45.009Z,1.90
2022-08-31T15:29:56.078Z,3.00
2022-08-31T15:34:58.454Z,1.98
2022-08-31T15:40:02.227Z,2.40
2022-08-31T15:45:07.526Z,2.22
2022-08-31T15:50:09.559Z,2.42
2022-08-31T15:55:12.259Z,2.20
2022-08-31T16:00:14.719Z,2.13
2022-08-31T16:05:17.307Z,2.25
2022-08-31T16:10:20.431Z,2.40
2022-08-31T16:15:24.865Z,2.58
2022-08-31T16:20:27.591Z,2.70
2022-08-31T16:25:30.509Z,2.63
2022-08-31T16:30:51.823Z,3.72
2022-08-31T16:35:53.832Z,2.40
2022-08-31T16:41:01.672Z,2.30
2022-08-31T16:46:30.583Z,2.58
2022-08-31T16:51:31.010Z,2.63
2022-08-31T16:56:35.410Z,2.97
2022-08-31T17:01:44.584Z,3.08
2022-08-31T17:06:48.538Z,2.53
2022-08-31T17:11:57.481Z,3.20
2022-08-31T17:17:05.736Z,2.90
2022-08-31T17:22:09.593Z,3.63
2022-08-31T17:27:18.049Z,3.58
2022-08-31T17:32:24.897Z,3.45
2022-08-31T17:37:32.594Z,5.15
2022-08-31T17:42:35.105Z,3.20
2022-08-31T17:47:37.099Z,2.88
2022-08-31T17:52:38.802Z,3.40
2022-08-31T17:57:42.111Z,3.88
2022-08-31T18:02:44.625Z,5.55
2022-08-31T18:07:50.205Z,3.55
2022-08-31T18:12:52.251Z,3.50
2022-08-31T18:17:55.293Z,3.42
2022-08-31T18:22:57.482Z,3.53
2022-08-31T18:28:03.270Z,3.58
2022-08-31T18:33:05.503Z,4.10
2022-08-31T18:38:09.082Z,3.72
2022-08-31T18:43:29.429Z,3.63
2022-08-31T18:48:33.654Z,3.83
2022-08-31T18:53:36.008Z,3.95
2022-08-31T18:58:39.880Z,3.45
2022-08-31T19:03:42.386Z,4.15
2022-08-31T19:08:45.608Z,3.17
2022-08-31T19:13:51.324Z,4.15
2022-08-31T19:18:56.553Z,3.78
2022-08-31T19:24:00.837Z,3.50
2022-08-31T19:29:08.546Z,5.22
2022-08-31T19:34:12.128Z,3.50
2022-08-31T19:39:22.215Z,3.83
2022-08-31T19:44:28.115Z,4.50
2022-08-31T19:49:31.126Z,4.28
2022-08-31T19:54:38.890Z,4.05
2022-08-31T19:59:41.029Z,3.70
2022-08-31T20:04:42.841Z,3.38
2022-08-31T20:09:44.664Z,4.05
2022-08-31T20:14:46.645Z,5.22
2022-08-31T20:19:49.556Z,3.72
2022-08-31T20:24:51.357Z,4.00
2022-08-31T20:29:53.374Z,3.50
2022-08-31T20:34:58.179Z,3.85
2022-08-31T20:39:59.867Z,4.25
2022-08-31T20:45:01.561Z,3.60
2022-08-31T20:50:07.340Z,4.45
2022-08-31T20:55:12.327Z,4.07
2022-08-31T21:00:15.701Z,3.65
2022-08-31T21:10:40.253Z,3.90
2022-08-31T21:15:46.510Z,3.88
2022-08-31T21:20:48.905Z,4.60
2022-08-31T21:25:50.617Z,4.13
2022-08-31T21:31:06.320Z,4.10
2022-08-31T21:36:17.464Z,4.30
2022-08-31T21:41:21.606Z,4.28
2022-08-31T21:46:26.872Z,4.28
2022-08-31T21:51:38.208Z,4.13
2022-08-31T22:01:45.960Z,3.90
2022-08-31T22:06:49.670Z,4.00
2022-08-31T22:11:54.909Z,4.82
2022-08-31T22:16:59.038Z,4.47
2022-08-31T22:22:01.242Z,4.45
2022-08-31T22:27:06.784Z,4.78
2022-08-31T22:32:12.437Z,4.75
2022-08-31T22:37:14.784Z,5.78
2022-08-31T22:42:16.716Z,6.00
2022-08-31T22:47:19.435Z,4.07
2022-08-31T22:52:21.686Z,4.95
2022-08-31T22:57:23.433Z,4.70
2022-08-31T23:02:26.163Z,4.50
2022-08-31T23:07:28.462Z,5.32
2022-08-31T23:12:30.221Z,4.85
2022-08-31T23:17:32.613Z,4.85
2022-08-31T23:22:37.058Z,5.85
2022-08-31T23:27:39.560Z,6.50
2022-08-31T23:32:44.681Z,6.50
2022-08-31T23:37:48.902Z,6.85
2022-08-31T23:42:50.995Z,7.30
2022-08-31T23:47:52.794Z,6.57
2022-08-31T23:52:54.609Z,7.68
2022-08-31T23:57:58.447Z,7.95
